.
WxDataArchive / Data Records for 2009-03-14
2009-03-13 March 2009 2009-03-15

Data Records for Saturday, 14 March 2009

Time	Temp	Chill	HIndex	Humid	Dewpt	 Wind 	HiWind	WindDir	Rain 	Barom 
-----	----	-----	------	-----	-----	------	------	-------	-----	----- 
00:00	25.1	25.1	25.1	84	21.0	0	0	---	0.00	30.351 
00:05	25.1	25.1	25.1	84	21.0	0	0	---	0.00	30.347 
00:10	25.0	25.0	25.0	84	20.9	0	0	---	0.00	30.345 
00:15	24.8	24.8	24.8	84	20.7	0	0	---	0.00	30.344 
00:20	24.7	24.7	24.7	84	20.6	0	0	---	0.00	30.344 
00:25	24.5	24.5	24.5	84	20.4	0	0	---	0.00	30.343 
00:30	24.4	24.4	24.4	84	20.3	0	0	---	0.00	30.336 
00:35	24.2	24.2	24.2	85	20.4	0	0	---	0.00	30.335 
00:40	24.2	24.2	24.2	85	20.4	0	0	---	0.00	30.332 
00:45	24.2	24.2	24.2	85	20.4	0	0	---	0.00	30.330 
00:50	24.2	24.2	24.2	85	20.4	0	0	---	0.00	30.328 
00:55	24.1	24.1	24.1	85	20.3	0	0	---	0.00	30.326 
01:00	23.9	23.9	23.9	86	20.3	0	0	---	0.00	30.322 
01:05	23.9	23.9	23.9	86	20.3	0	0	---	0.00	30.315 
01:10	23.8	23.8	23.8	86	20.2	0	0	---	0.00	30.316 
01:15	23.6	23.6	23.6	86	20.0	0	0	---	0.00	30.312 
01:20	23.5	23.5	23.5	86	19.9	0	0	---	0.00	30.312 
01:25	23.5	23.5	23.5	86	19.9	0	0	---	0.00	30.311 
01:30	23.5	23.5	23.5	87	20.2	0	0	---	0.00	30.312 
01:35	23.3	23.3	23.3	87	20.0	0	0	---	0.00	30.312 
01:40	23.3	23.3	23.3	87	20.0	0	0	---	0.00	30.313 
01:45	23.2	23.2	23.2	87	19.9	0	0	---	0.00	30.313 
01:50	23.0	23.0	23.0	87	19.7	0	0	---	0.00	30.313 
01:55	22.9	22.9	22.9	87	19.6	0	0	---	0.00	30.313 
02:00	22.7	22.7	22.7	87	19.4	0	0	---	0.00	30.312 
02:05	22.5	22.5	22.5	87	19.2	0	0	---	0.00	30.311 
02:10	22.5	22.5	22.5	87	19.2	0	0	---	0.00	30.309 
02:15	22.4	22.4	22.4	87	19.1	0	0	---	0.00	30.311 
02:20	22.5	22.5	22.5	88	19.5	0	0	---	0.00	30.309 
02:25	22.5	22.5	22.5	88	19.5	0	0	---	0.00	30.311 
02:30	22.4	22.4	22.4	88	19.4	0	0	---	0.00	30.312 
02:35	22.2	22.2	22.2	88	19.2	0	0	---	0.00	30.309 
02:40	22.2	22.2	22.2	88	19.2	0	0	---	0.00	30.306 
02:45	22.2	22.2	22.2	88	19.2	0	0	---	0.00	30.304 
02:50	22.1	22.1	22.1	88	19.1	0	0	---	0.00	30.303 
02:55	22.1	22.1	22.1	88	19.1	0	0	---	0.00	30.303 
03:00	21.9	21.9	21.9	88	18.9	0	0	---	0.00	30.301 
03:05	21.9	21.9	21.9	88	18.9	0	0	---	0.00	30.298 
03:10	21.8	21.8	21.8	88	18.8	0	0	---	0.00	30.298 
03:15	21.6	21.6	21.6	88	18.6	0	0	---	0.00	30.296 
03:20	21.6	21.6	21.6	89	18.9	0	0	---	0.00	30.296 
03:25	21.6	21.6	21.6	89	18.9	0	0	---	0.00	30.294 
03:30	21.6	21.6	21.6	89	18.9	0	0	---	0.00	30.294 
03:35	21.6	21.6	21.6	89	18.9	0	0	---	0.00	30.292 
03:40	21.8	21.8	21.8	90	19.3	0	0	---	0.00	30.293 
03:45	21.8	21.8	21.8	90	19.3	0	0	---	0.00	30.285 
03:50	21.6	21.6	21.6	90	19.1	0	0	---	0.00	30.282 
03:55	21.4	21.4	21.4	90	18.9	0	0	---	0.00	30.283 
04:00	21.3	21.3	21.3	90	18.8	0	0	---	0.00	30.283 
04:05	21.1	21.1	21.1	90	18.6	0	0	---	0.00	30.283 
04:10	21.1	21.1	21.1	90	18.6	0	0	---	0.00	30.283 
04:15	21.1	21.1	21.1	90	18.6	0	0	---	0.00	30.285 
04:20	21.1	21.1	21.1	90	18.6	0	0	---	0.00	30.283 
04:25	21.1	21.1	21.1	90	18.6	0	0	---	0.00	30.282 
04:30	21.1	21.1	21.1	90	18.6	0	0	---	0.00	30.282 
04:35	21.1	21.1	21.1	90	18.6	0	0	---	0.00	30.282 
04:40	21.0	21.0	21.0	90	18.5	0	0	---	0.00	30.281 
04:45	21.0	21.0	21.0	90	18.5	0	0	---	0.00	30.282 
04:50	20.8	20.8	20.8	90	18.3	0	0	---	0.00	30.283 
04:55	20.8	20.8	20.8	91	18.6	0	0	---	0.00	30.282 
05:00	20.8	20.8	20.8	91	18.6	0	0	---	0.00	30.282 
05:05	20.8	20.8	20.8	91	18.6	0	0	---	0.00	30.282 
05:10	20.8	20.8	20.8	91	18.6	0	0	---	0.00	30.282 
05:15	20.8	20.8	20.8	91	18.6	0	0	---	0.00	30.281 
05:20	20.6	20.6	20.6	91	18.4	0	0	---	0.00	30.281 
05:25	20.6	20.6	20.6	91	18.4	0	0	---	0.00	30.279 
05:30	20.6	20.6	20.6	91	18.4	0	0	---	0.00	30.281 
05:35	20.6	20.6	20.6	91	18.4	0	0	---	0.00	30.281 
05:40	20.5	20.5	20.5	91	18.3	0	0	---	0.00	30.280 
05:45	20.3	20.3	20.3	91	18.1	0	0	---	0.00	30.283 
05:50	20.2	20.2	20.2	91	18.0	0	0	---	0.00	30.284 
05:55	20.3	20.3	20.3	91	18.1	0	0	---	0.00	30.285 
06:00	20.3	20.3	20.3	91	18.1	0	0	---	0.00	30.285 
06:05	20.5	20.5	20.5	91	18.3	0	0	---	0.00	30.286 
06:10	20.5	20.5	20.5	91	18.3	0	0	---	0.00	30.287 
06:15	20.5	20.5	20.5	91	18.3	0	0	---	0.00	30.290 
06:20	20.5	20.5	20.5	91	18.3	0	0	---	0.00	30.292 
06:25	20.6	20.6	20.6	91	18.4	0	0	---	0.00	30.290 
06:30	20.6	20.6	20.6	91	18.4	0	0	---	0.00	30.292 
06:35	20.6	20.6	20.6	91	18.4	0	0	---	0.00	30.294 
06:40	20.6	20.6	20.6	91	18.4	0	0	---	0.00	30.290 
06:45	20.6	20.6	20.6	91	18.4	0	0	---	0.00	30.292 
06:50	20.6	20.6	20.6	92	18.7	0	0	---	0.00	30.293 
06:55	20.6	20.6	20.6	92	18.7	0	0	---	0.00	30.293 
07:00	20.6	20.6	20.6	91	18.4	0	0	---	0.00	30.296 
07:05	20.6	20.6	20.6	91	18.4	0	0	---	0.00	30.299 
07:10	20.6	20.6	20.6	91	18.4	0	0	---	0.00	30.302 
07:15	20.6	20.6	20.6	92	18.7	0	0	---	0.00	30.302 
07:20	20.6	20.6	20.6	92	18.7	0	0	---	0.00	30.301 
07:25	20.8	20.8	20.8	92	18.9	0	0	---	0.00	30.300 
07:30	21.1	21.1	21.1	92	19.1	0	0	---	0.00	30.300 
07:35	21.4	21.4	21.4	92	19.4	0	0	---	0.00	30.299 
07:40	21.8	21.8	21.8	92	19.8	0	0	---	0.00	30.298 
07:45	22.4	22.4	22.4	93	20.7	0	0	---	0.00	30.299 
07:50	23.2	23.2	23.2	93	21.5	0	0	---	0.00	30.300 
07:55	23.9	23.9	23.9	93	22.2	0	0	---	0.00	30.299 
08:00	24.8	24.8	24.8	94	23.3	0	0	---	0.00	30.300 
08:05	25.8	25.8	25.8	94	24.3	0	0	---	0.00	30.299 
08:10	26.9	26.9	26.9	93	25.2	0	1	90	0.00	30.299 
08:15	27.5	27.5	27.5	92	25.5	0	1	90	0.00	30.300 
08:20	28.4	28.4	28.4	90	25.8	1	2	90	0.00	30.299 
08:25	29.3	29.3	29.3	86	25.6	1	3	90	0.00	30.298 
08:30	30.0	30.0	30.0	82	25.2	1	3	90	0.00	30.296 
08:35	30.7	30.7	30.7	79	25.0	1	3	90	0.00	30.295 
08:40	31.5	31.5	31.5	77	25.1	1	3	90	0.00	30.296 
08:45	31.9	31.9	31.9	73	24.2	2	4	90	0.00	30.294 
08:50	32.4	32.4	32.4	71	24.1	1	3	112	0.00	30.293 
08:55	32.8	32.8	32.8	69	23.8	1	3	112	0.00	30.294 
09:00	33.1	33.1	33.1	68	23.7	1	4	112	0.00	30.295 
09:05	33.2	33.2	33.2	69	24.2	1	3	112	0.00	30.295 
09:10	33.7	33.7	33.7	69	24.6	1	3	112	0.00	30.293 
09:15	34.1	34.1	34.1	70	25.4	1	4	112	0.00	30.293 
09:20	34.4	34.4	34.4	69	25.3	1	3	112	0.00	30.293 
09:25	34.9	34.9	34.9	64	24.0	1	4	112	0.00	30.291 
09:30	34.9	34.9	34.9	66	24.7	1	2	112	0.00	30.291 
09:35	35.0	35.0	35.0	67	25.2	1	3	112	0.00	30.291 
09:40	35.5	35.5	35.5	66	25.3	1	3	112	0.00	30.290 
09:45	35.8	35.8	35.8	65	25.2	1	3	112	0.00	30.289 
09:50	35.8	35.8	35.8	64	24.8	0	2	112	0.00	30.287 
09:55	35.9	35.9	35.9	61	23.8	2	5	112	0.00	30.287 
10:00	36.2	36.2	36.2	62	24.5	2	4	112	0.00	30.285 
10:05	36.6	36.6	36.6	64	25.6	1	5	112	0.00	30.284 
10:10	37.0	37.0	37.0	60	24.4	3	5	112	0.00	30.285 
10:15	37.2	37.2	37.2	59	24.2	2	5	90	0.00	30.283 
10:20	37.3	37.3	37.3	59	24.3	2	6	90	0.00	30.283 
10:25	37.6	37.6	37.6	59	24.6	2	5	90	0.00	30.284 
10:30	38.0	38.0	38.0	60	25.4	2	5	112	0.00	30.284 
10:35	38.5	38.5	38.5	58	25.0	3	6	90	0.00	30.283 
10:40	39.1	39.1	39.1	57	25.2	3	6	112	0.00	30.285 
10:45	39.5	39.5	39.5	55	24.7	1	4	112	0.00	30.285 
10:50	39.5	39.5	39.5	55	24.7	3	6	112	0.00	30.284 
10:55	39.6	36.9	39.6	55	24.8	4	6	112	0.00	30.284 
11:00	39.8	39.8	39.8	54	24.5	3	6	112	0.00	30.284 
11:05	40.2	40.2	40.2	57	26.2	2	7	112	0.00	30.284 
11:10	40.8	40.8	40.8	51	24.1	3	7	112	0.00	30.279 
11:15	41.2	41.2	41.2	52	24.9	2	5	90	0.00	30.280 
11:20	41.5	41.5	41.5	52	25.2	2	5	112	0.00	30.277 
11:25	41.8	41.8	41.8	54	26.4	1	4	112	0.00	30.274 
11:30	41.9	41.9	41.9	51	25.1	3	7	112	0.00	30.273 
11:35	42.1	42.1	42.1	54	26.7	2	4	90	0.00	30.272 
11:40	42.1	42.1	42.1	53	26.2	3	5	112	0.00	30.268 
11:45	42.2	42.2	42.2	53	26.3	2	5	112	0.00	30.265 
11:50	42.3	42.3	42.3	52	25.9	1	7	112	0.00	30.263 
11:55	42.6	42.6	42.6	54	27.1	1	5	90	0.00	30.260 
12:00	42.8	42.8	42.8	50	25.5	2	6	112	0.00	30.259 
12:05	42.6	42.6	42.6	54	27.1	2	5	90	0.00	30.260 
12:10	42.8	42.8	42.8	51	25.9	2	5	112	0.00	30.259 
12:15	42.8	42.8	42.8	51	25.9	2	6	90	0.00	30.258 
12:20	42.9	42.9	42.9	54	27.4	2	7	90	0.00	30.258 
12:25	42.9	42.9	42.9	53	27.0	3	6	112	0.00	30.257 
12:30	42.9	42.9	42.9	51	26.0	3	6	112	0.00	30.257 
12:35	43.1	43.1	43.1	50	25.7	2	6	112	0.00	30.255 
12:40	43.2	43.2	43.2	48	24.9	3	6	112	0.00	30.253 
12:45	43.3	43.3	43.3	50	25.9	2	5	112	0.00	30.250 
12:50	43.3	43.3	43.3	50	25.9	3	6	112	0.00	30.247 
12:55	43.5	43.5	43.5	48	25.1	2	6	112	0.00	30.245 
13:00	43.6	43.6	43.6	50	26.2	2	5	90	0.00	30.241 
13:05	44.1	44.1	44.1	45	24.1	2	5	112	0.00	30.243 
13:10	44.1	44.1	44.1	44	23.6	2	7	90	0.00	30.239 
13:15	44.1	44.1	44.1	49	26.2	3	6	90	0.00	30.238 
13:20	44.3	44.3	44.3	48	25.9	2	5	112	0.00	30.234 
13:25	44.8	44.8	44.8	47	25.8	2	6	135	0.00	30.232 
13:30	45.1	45.1	45.1	45	25.0	1	3	135	0.00	30.225 
13:35	45.1	45.1	45.1	44	24.5	2	5	112	0.00	30.223 
13:40	44.8	44.8	44.8	40	22.0	3	7	90	0.00	30.221 
13:45	45.1	45.1	45.1	43	24.0	1	4	112	0.00	30.217 
13:50	45.5	45.5	45.5	44	24.9	1	6	90	0.00	30.211 
13:55	45.7	45.7	45.7	41	23.4	2	6	112	0.00	30.209 
14:00	45.4	45.4	45.4	40	22.5	3	6	90	0.00	30.207 
14:05	45.5	45.5	45.5	45	25.4	1	3	90	0.00	30.204 
14:10	45.8	45.8	45.8	42	24.0	1	4	90	0.00	30.196 
14:15	45.8	45.8	45.8	43	24.6	2	5	90	0.00	30.195 
14:20	46.0	46.0	46.0	43	24.8	1	5	112	0.00	30.193 
14:25	46.0	46.0	46.0	43	24.8	3	6	90	0.00	30.192 
14:30	46.0	46.0	46.0	43	24.8	1	3	112	0.00	30.189 
14:35	46.1	46.1	46.1	44	25.4	2	5	112	0.00	30.188 
14:40	46.1	46.1	46.1	48	27.5	1	4	112	0.00	30.187 
14:45	46.2	46.2	46.2	44	25.5	1	5	90	0.00	30.186 
14:50	46.5	46.5	46.5	42	24.7	2	4	112	0.00	30.181 
14:55	46.7	46.7	46.7	40	23.7	1	5	112	0.00	30.182 
15:00	46.8	46.8	46.8	40	23.8	2	5	112	0.00	30.180 
15:05	46.7	46.7	46.7	39	23.1	2	5	112	0.00	30.179 
15:10	46.7	46.7	46.7	38	22.5	1	5	112	0.00	30.178 
15:15	47.0	47.0	47.0	39	23.3	1	5	112	0.00	30.177 
15:20	47.0	47.0	47.0	39	23.3	2	5	112	0.00	30.177 
15:25	47.3	47.3	47.3	34	20.4	1	4	112	0.00	30.177 
15:30	47.3	47.3	47.3	38	23.0	2	5	90	0.00	30.178 
15:35	47.1	47.1	47.1	39	23.4	2	5	112	0.00	30.176 
15:40	47.1	47.1	47.1	37	22.2	2	6	112	0.00	30.178 
15:45	47.1	47.1	47.1	39	23.4	2	6	112	0.00	30.177 
15:50	47.6	47.6	47.6	38	23.3	2	5	90	0.00	30.178 
15:55	47.6	47.6	47.6	36	22.0	2	5	90	0.00	30.178 
16:00	47.4	47.4	47.4	37	22.5	1	5	90	0.00	30.176 
16:05	47.4	47.4	47.4	38	23.1	2	5	90	0.00	30.177 
16:10	47.3	47.3	47.3	38	23.0	3	6	90	0.00	30.175 
16:15	47.0	47.0	47.0	38	22.7	2	7	112	0.00	30.175 
16:20	46.8	46.8	46.8	40	23.8	2	4	112	0.00	30.174 
16:25	46.8	46.8	46.8	40	23.8	1	5	112	0.00	30.171 
16:30	47.0	47.0	47.0	42	25.1	2	5	90	0.00	30.175 
16:35	47.3	47.3	47.3	40	24.2	1	4	90	0.00	30.173 
16:40	47.4	47.4	47.4	38	23.1	1	4	90	0.00	30.175 
16:45	47.6	47.6	47.6	40	24.5	2	5	112	0.00	30.170 
16:50	47.6	47.6	47.6	38	23.3	2	5	90	0.00	30.170 
16:55	47.6	47.6	47.6	39	23.9	1	5	90	0.00	30.166 
17:00	47.4	47.4	47.4	40	24.3	1	4	90	0.00	30.165 
17:05	47.4	47.4	47.4	39	23.7	1	3	135	0.00	30.165 
17:10	47.6	47.6	47.6	39	23.9	2	4	90	0.00	30.163 
17:15	47.4	47.4	47.4	40	24.3	2	3	112	0.00	30.165 
17:20	47.4	47.4	47.4	38	23.1	2	5	90	0.00	30.164 
17:25	47.4	47.4	47.4	39	23.7	2	4	112	0.00	30.162 
17:30	47.3	47.3	47.3	39	23.6	1	3	90	0.00	30.162 
17:35	47.1	47.1	47.1	40	24.0	1	5	90	0.00	30.160 
17:40	46.8	46.8	46.8	41	24.4	1	5	112	0.00	30.157 
17:45	46.7	46.7	46.7	40	23.7	1	4	112	0.00	30.159 
17:50	46.5	46.5	46.5	41	24.1	1	2	112	0.00	30.157 
17:55	46.5	46.5	46.5	41	24.1	1	3	112	0.00	30.156 
18:00	46.5	46.5	46.5	42	24.7	1	4	90	0.00	30.154 
18:05	46.4	46.4	46.4	43	25.1	1	3	90	0.00	30.155 
18:10	46.2	46.2	46.2	42	24.4	1	3	90	0.00	30.153 
18:15	45.8	45.8	45.8	43	24.6	1	3	90	0.00	30.156 
18:20	45.7	45.7	45.7	44	25.0	1	3	90	0.00	30.155 
18:25	45.4	45.4	45.4	46	25.8	0	1	90	0.00	30.152 
18:30	44.9	44.9	44.9	46	25.4	0	2	90	0.00	30.152 
18:35	44.6	44.6	44.6	47	25.6	0	0	---	0.00	30.154 
18:40	44.2	44.2	44.2	47	25.3	0	0	---	0.00	30.156 
18:45	43.6	43.6	43.6	49	25.7	0	0	---	0.00	30.158 
18:50	43.1	43.1	43.1	50	25.7	0	0	---	0.00	30.157 
18:55	42.6	42.6	42.6	52	26.2	0	0	---	0.00	30.157 
19:00	42.1	42.1	42.1	53	26.2	0	0	---	0.00	30.156 
19:05	41.6	41.6	41.6	54	26.2	0	0	---	0.00	30.154 
19:10	41.2	41.2	41.2	54	25.8	0	0	---	0.00	30.157 
19:15	40.6	40.6	40.6	55	25.7	0	0	---	0.00	30.159 
19:20	40.2	40.2	40.2	56	25.8	0	0	---	0.00	30.160 
19:25	39.9	39.9	39.9	58	26.3	0	0	---	0.00	30.159 
19:30	39.6	39.6	39.6	58	26.1	0	0	---	0.00	30.162 
19:35	39.3	39.3	39.3	59	26.2	0	0	---	0.00	30.161 
19:40	39.2	39.2	39.2	60	26.5	0	0	---	0.00	30.163 
19:45	39.1	39.1	39.1	61	26.8	0	0	---	0.00	30.162 
19:50	38.8	38.8	38.8	62	26.9	0	0	---	0.00	30.162 
19:55	38.5	38.5	38.5	62	26.6	0	0	---	0.00	30.163 
20:00	38.3	38.3	38.3	63	26.8	0	0	---	0.00	30.165 
20:05	38.0	38.0	38.0	64	26.9	0	0	---	0.00	30.156 
20:10	37.9	37.9	37.9	64	26.8	0	0	---	0.00	30.155 
20:15	37.6	37.6	37.6	65	26.9	0	0	---	0.00	30.155 
20:20	37.5	37.5	37.5	65	26.8	0	0	---	0.00	30.156 
20:25	37.2	37.2	37.2	66	26.9	0	0	---	0.00	30.157 
20:30	37.0	37.0	37.0	67	27.1	0	0	---	0.00	30.157 
20:35	36.8	36.8	36.8	68	27.2	0	0	---	0.00	30.157 
20:40	36.5	36.5	36.5	69	27.3	0	0	---	0.00	30.158 
20:45	36.2	36.2	36.2	70	27.4	0	0	---	0.00	30.158 
20:50	35.9	35.9	35.9	71	27.4	0	0	---	0.00	30.158 
20:55	35.8	35.8	35.8	71	27.3	0	0	---	0.00	30.159 
21:00	35.5	35.5	35.5	72	27.4	0	0	---	0.00	30.159 
21:05	35.2	35.2	35.2	72	27.1	0	0	---	0.00	30.158 
21:10	34.9	34.9	34.9	72	26.8	0	0	---	0.00	30.158 
21:15	34.7	34.7	34.7	73	26.9	0	0	---	0.00	30.159 
21:20	34.4	34.4	34.4	73	26.7	0	0	---	0.00	30.159 
21:25	34.1	34.1	34.1	73	26.4	0	0	---	0.00	30.159 
21:30	34.0	34.0	34.0	73	26.3	0	0	---	0.00	30.159 
21:35	33.7	33.7	33.7	73	26.0	0	0	---	0.00	30.159 
21:40	33.4	33.4	33.4	73	25.7	0	0	---	0.00	30.159 
21:45	33.2	33.2	33.2	74	25.8	0	0	---	0.00	30.162 
21:50	32.9	32.9	32.9	74	25.5	0	0	---	0.00	30.162 
21:55	32.8	32.8	32.8	75	25.8	0	0	---	0.00	30.163 
22:00	32.7	32.7	32.7	75	25.7	0	0	---	0.00	30.163 
22:05	32.5	32.5	32.5	76	25.8	0	0	---	0.00	30.160 
22:10	32.4	32.4	32.4	76	25.7	0	0	---	0.00	30.160 
22:15	32.2	32.2	32.2	76	25.5	0	0	---	0.00	30.159 
22:20	32.1	32.1	32.1	77	25.7	0	0	---	0.00	30.159 
22:25	31.9	31.9	31.9	77	25.5	0	0	---	0.00	30.159 
22:30	31.8	31.8	31.8	77	25.4	0	0	---	0.00	30.158 
22:35	31.6	31.6	31.6	78	25.5	0	0	---	0.00	30.158 
22:40	31.5	31.5	31.5	78	25.4	0	0	---	0.00	30.158 
22:45	31.3	31.3	31.3	78	25.3	0	0	---	0.00	30.160 
22:50	31.2	31.2	31.2	79	25.5	0	0	---	0.00	30.160 
22:55	31.0	31.0	31.0	79	25.3	0	0	---	0.00	30.160 
23:00	30.9	30.9	30.9	79	25.2	0	0	---	0.00	30.161 
23:05	30.6	30.6	30.6	79	24.9	0	0	---	0.00	30.157 
23:10	30.6	30.6	30.6	80	25.2	0	0	---	0.00	30.157 
23:15	30.3	30.3	30.3	80	24.9	0	0	---	0.00	30.159 
23:20	30.1	30.1	30.1	80	24.7	0	0	---	0.00	30.159 
23:25	30.0	30.0	30.0	81	24.9	0	0	---	0.00	30.161 
23:30	29.8	29.8	29.8	81	24.7	0	0	---	0.00	30.160 
23:35	29.7	29.7	29.7	81	24.6	0	0	---	0.00	30.161 
23:40	29.5	29.5	29.5	82	24.7	0	0	---	0.00	30.161 
23:45	29.4	29.4	29.4	82	24.6	0	0	---	0.00	30.159 
23:50	29.3	29.3	29.3	82	24.5	0	0	---	0.00	30.158 
23:55	29.1	29.1	29.1	82	24.3	0	0	---	0.00	30.157 

CoCoRaHS
IN-AL-39
A2 Web Hosting
Creative Commons License
GoDaddy
search engine by freefind advanced

loaded 2018-11-15 05:30:43 • last modified 2010-11-18 10:43:29
Privacy PolicyDisclaimer
• wx.awcolley.com is powered by PmWiki v.2002016 •
• all content (unless otherwise noted) © 2018 A W Colley